createdAt,value
2019-01-03T00:01:11.964Z,103507.16
2019-01-03T00:03:47.545Z,103506.51
2019-01-03T00:06:25.314Z,103505.53
2019-01-03T00:09:13.957Z,103499.86
2019-01-03T00:11:48.794Z,103504.64
2019-01-03T00:14:36.915Z,103496.12
2019-01-03T00:17:20.934Z,103499.12
2019-01-03T00:19:53.005Z,103493.70
2019-01-03T00:22:25.093Z,103491.11
2019-01-03T00:25:03.299Z,103484.47
2019-01-03T00:27:47.595Z,103480.82
2019-01-03T00:30:35.920Z,103488.03
2019-01-03T00:33:19.532Z,103478.70
2019-01-03T00:35:54.543Z,103493.70
2019-01-03T00:38:32.352Z,103498.22
2019-01-03T00:41:20.764Z,103498.30
2019-01-03T00:44:01.654Z,103505.36
2019-01-03T00:46:34.030Z,103507.53
2019-01-03T00:49:11.755Z,103507.80
2019-01-03T00:51:46.693Z,103514.77
2019-01-03T00:54:27.882Z,103512.25
2019-01-03T00:57:02.837Z,103524.48
2019-01-03T00:59:40.989Z,103519.47
2019-01-03T01:02:16.113Z,103522.05
2019-01-03T01:04:54.134Z,103518.59
2019-01-03T01:07:42.568Z,103513.56
2019-01-03T01:10:17.573Z,103507.15
2019-01-03T01:12:55.772Z,103512.33
2019-01-03T01:15:40.083Z,103508.61
2019-01-03T01:18:27.447Z,103510.87
2019-01-03T01:21:08.437Z,103523.67
2019-01-03T01:23:40.464Z,103527.23
2019-01-03T01:26:28.652Z,103526.17
2019-01-03T01:29:03.535Z,103523.09
2019-01-03T01:31:35.541Z,103516.88
2019-01-03T01:34:19.471Z,103520.60
2019-01-03T01:37:03.617Z,103519.70
2019-01-03T01:39:41.069Z,103514.75
2019-01-03T01:42:22.202Z,103518.58
2019-01-03T01:44:54.236Z,103526.43
2019-01-03T01:47:35.188Z,103526.19
2019-01-03T01:50:08.573Z,103523.75
2019-01-03T01:52:49.779Z,103521.39
2019-01-03T01:55:27.577Z,103527.55
2019-01-03T01:58:16.030Z,103524.64
2019-01-03T02:01:04.372Z,103519.94
2019-01-03T02:03:52.694Z,103516.53
2019-01-03T02:06:27.400Z,103515.31
2019-01-03T02:09:11.553Z,103512.73
2019-01-03T02:11:46.656Z,103511.84
2019-01-03T02:14:22.089Z,103509.25
2019-01-03T02:16:54.204Z,103495.14
2019-01-03T02:19:28.916Z,103496.94
2019-01-03T02:22:15.893Z,103499.53
2019-01-03T02:24:50.538Z,103508.52
2019-01-03T02:27:37.776Z,103506.81
2019-01-03T02:30:12.529Z,103518.33
2019-01-03T02:32:44.560Z,103529.52
2019-01-03T02:35:32.657Z,103526.92
2019-01-03T02:38:20.868Z,103522.53
2019-01-03T02:40:56.331Z,103523.84
2019-01-03T02:43:28.383Z,103511.20
2019-01-03T02:46:03.039Z,103515.89
2019-01-03T02:48:35.509Z,103512.33
2019-01-03T02:51:23.835Z,103514.94
2019-01-03T02:53:58.721Z,103513.47
2019-01-03T02:56:40.094Z,103512.02
2019-01-03T02:59:15.064Z,103498.48
2019-01-03T03:01:59.112Z,103503.27
2019-01-03T03:04:31.134Z,103493.53
2019-01-03T03:07:08.884Z,103504.08
2019-01-03T03:09:40.912Z,103491.11
2019-01-03T03:12:12.923Z,103497.27
2019-01-03T03:14:48.522Z,103496.78
2019-01-03T03:17:23.640Z,103486.25
2019-01-03T03:20:07.636Z,103490.87
2019-01-03T03:22:54.608Z,103490.63
2019-01-03T03:25:35.256Z,103480.42
2019-01-03T03:28:13.287Z,103491.92
2019-01-03T03:30:48.219Z,103491.20
2019-01-03T03:33:25.984Z,103481.72
2019-01-03T03:36:03.955Z,103487.22
2019-01-03T03:38:52.391Z,103483.66
2019-01-03T03:41:40.749Z,103486.41
2019-01-03T03:44:18.836Z,103489.00
2019-01-03T03:46:50.853Z,103483.97
2019-01-03T03:49:22.873Z,103484.29
2019-01-03T03:51:58.099Z,103474.48
2019-01-03T03:54:42.105Z,103484.46
2019-01-03T03:57:16.799Z,103488.10
2019-01-03T03:59:48.823Z,103479.92
2019-01-03T04:02:35.872Z,103493.47
2019-01-03T04:05:24.029Z,103494.03
2019-01-03T04:08:04.801Z,103487.94
2019-01-03T04:10:48.741Z,103480.25
2019-01-03T04:13:23.895Z,103481.13
2019-01-03T04:15:55.925Z,103475.53
2019-01-03T04:18:31.268Z,103469.15
2019-01-03T04:21:12.423Z,103470.84
2019-01-03T04:23:44.438Z,103477.98
2019-01-03T04:26:22.159Z,103473.45
2019-01-03T04:28:54.249Z,103468.74
2019-01-03T04:31:26.355Z,103475.39
2019-01-03T04:33:58.413Z,103472.39
2019-01-03T04:36:39.344Z,103468.75
2019-01-03T04:39:11.355Z,103462.11
2019-01-03T04:41:43.392Z,103475.72
2019-01-03T04:44:15.411Z,103476.02
2019-01-03T04:46:47.452Z,103475.70
2019-01-03T04:49:25.510Z,103470.11
2019-01-03T04:52:13.320Z,103459.17
2019-01-03T04:54:45.343Z,103480.25
2019-01-03T04:57:23.215Z,103476.84
2019-01-03T05:00:04.144Z,103474.09
2019-01-03T05:02:44.687Z,103463.47
2019-01-03T05:05:34.652Z,103458.36
2019-01-03T05:08:19.335Z,103458.37
2019-01-03T05:10:51.412Z,103460.23
2019-01-03T05:13:29.157Z,103456.58
2019-01-03T05:16:17.449Z,103456.25
2019-01-03T05:18:55.147Z,103451.23
2019-01-03T05:21:42.275Z,103465.02
2019-01-03T05:24:29.473Z,103448.96
2019-01-03T05:27:04.574Z,103453.50
2019-01-03T05:29:39.950Z,103448.72
2019-01-03T05:32:14.706Z,103452.20
2019-01-03T05:34:49.406Z,103452.70
2019-01-03T05:37:33.358Z,103457.37
2019-01-03T05:40:14.166Z,103473.10
2019-01-03T05:42:46.204Z,103470.83
2019-01-03T05:45:30.257Z,103473.91
2019-01-03T05:48:20.527Z,103474.81
2019-01-03T05:51:07.787Z,103472.78
2019-01-03T05:53:48.877Z,103468.08
2019-01-03T05:56:23.599Z,103474.25
2019-01-03T05:59:04.669Z,103471.01
2019-01-03T06:01:37.005Z,103473.28
2019-01-03T06:04:21.277Z,103473.91
2019-01-03T06:06:58.917Z,103479.10
2019-01-03T06:09:33.990Z,103480.97
2019-01-03T06:12:22.243Z,103484.80
2019-01-03T06:14:54.319Z,103479.98
2019-01-03T06:17:26.814Z,103483.80
2019-01-03T06:20:04.559Z,103491.03
2019-01-03T06:22:42.548Z,103496.11
2019-01-03T06:25:14.578Z,103496.52
2019-01-03T06:28:02.937Z,103501.80
2019-01-03T06:30:44.061Z,103498.64
2019-01-03T06:33:32.554Z,103492.64
2019-01-03T06:36:04.596Z,103504.89
2019-01-03T06:38:36.610Z,103499.02
2019-01-03T06:41:24.717Z,103505.92
2019-01-03T06:43:56.725Z,103513.95
2019-01-03T06:46:44.890Z,103506.33
2019-01-03T06:49:33.303Z,103511.52
2019-01-03T06:52:10.744Z,103518.67
2019-01-03T06:54:51.598Z,103529.94
2019-01-03T06:57:26.792Z,103516.88
2019-01-03T07:00:07.960Z,103532.75
2019-01-03T07:02:56.377Z,103538.60
2019-01-03T07:05:40.335Z,103542.33
2019-01-03T07:08:15.009Z,103534.46
2019-01-03T07:10:47.009Z,103537.47
2019-01-03T07:13:19.038Z,103548.18
2019-01-03T07:16:07.520Z,103559.38
2019-01-03T07:18:39.907Z,103553.78
2019-01-03T07:21:14.594Z,103565.72
2019-01-03T07:24:02.648Z,103565.15
2019-01-03T07:26:40.526Z,103583.25
2019-01-03T07:29:21.030Z,103572.20
2019-01-03T07:32:09.147Z,103576.19
2019-01-03T07:34:49.902Z,103579.64
2019-01-03T07:37:39.600Z,103571.86
2019-01-03T07:40:27.702Z,103573.96
2019-01-03T07:43:11.812Z,103571.86
2019-01-03T07:45:49.846Z,103585.60
2019-01-03T07:48:27.712Z,103593.28
2019-01-03T07:51:02.464Z,103582.56
2019-01-03T07:53:50.747Z,103594.98
2019-01-03T07:56:23.142Z,103591.12
2019-01-03T07:58:58.155Z,103591.01
2019-01-03T08:01:42.585Z,103598.81
2019-01-03T08:04:30.875Z,103595.32
2019-01-03T08:07:08.897Z,103594.44
2019-01-03T08:09:46.919Z,103585.34
2019-01-03T08:12:27.803Z,103604.23
2019-01-03T08:15:02.674Z,103592.17
2019-01-03T08:17:51.018Z,103584.05
2019-01-03T08:20:39.326Z,103588.27
2019-01-03T08:23:16.877Z,103596.71
2019-01-03T08:25:48.900Z,103594.92
2019-01-03T08:28:21.037Z,103599.27
2019-01-03T08:31:09.546Z,103587.70
2019-01-03T08:33:48.071Z,103594.52
2019-01-03T08:36:22.983Z,103584.70
2019-01-03T08:39:03.963Z,103601.70
2019-01-03T08:41:38.675Z,103597.20
2019-01-03T08:44:10.687Z,103598.47
2019-01-03T08:46:51.375Z,103595.63
2019-01-03T08:49:29.208Z,103608.06
2019-01-03T08:52:13.595Z,103605.92
2019-01-03T08:54:45.656Z,103609.25
2019-01-03T08:57:32.674Z,103604.87
2019-01-03T09:00:20.397Z,103611.12
2019-01-03T09:03:08.584Z,103616.81
2019-01-03T09:05:56.606Z,103616.48
2019-01-03T09:08:40.596Z,103629.64
2019-01-03T09:11:21.535Z,103615.81
2019-01-03T09:14:08.568Z,103619.98
2019-01-03T09:16:56.764Z,103620.23
2019-01-03T09:19:46.782Z,103632.78
2019-01-03T09:22:34.877Z,103640.33
2019-01-03T09:25:24.179Z,103636.03
2019-01-03T09:28:12.747Z,103641.79
2019-01-03T09:30:53.897Z,103646.17
2019-01-03T09:33:32.020Z,103638.47
2019-01-03T09:36:18.711Z,103644.96
2019-01-03T09:39:08.920Z,103640.83
2019-01-03T09:41:41.640Z,103625.72
2019-01-03T09:44:16.721Z,103629.53
2019-01-03T09:46:47.802Z,103631.16
2019-01-03T09:49:18.327Z,103619.14
2019-01-03T09:51:49.071Z,103615.66
2019-01-03T09:54:19.562Z,103613.95
2019-01-03T09:56:49.958Z,103617.20
2019-01-03T09:59:20.524Z,103613.55
2019-01-03T10:01:50.979Z,103601.94
2019-01-03T10:04:21.330Z,103609.17
2019-01-03T10:06:51.978Z,103604.45
2019-01-03T10:09:22.390Z,103607.30
2019-01-03T10:11:53.167Z,103608.52
2019-01-03T10:14:23.887Z,103614.52
2019-01-03T10:16:54.276Z,103614.92
2019-01-03T10:19:24.653Z,103611.60
2019-01-03T10:21:55.070Z,103610.23
2019-01-03T10:24:25.443Z,103622.82
2019-01-03T10:26:55.838Z,103612.91
2019-01-03T10:29:26.202Z,103620.84
2019-01-03T10:31:56.605Z,103616.14
2019-01-03T10:34:27.003Z,103615.86
2019-01-03T10:36:57.411Z,103615.30
2019-01-03T10:39:27.861Z,103620.70
2019-01-03T10:41:58.245Z,103618.19
2019-01-03T10:44:28.731Z,103619.44
2019-01-03T10:46:59.666Z,103620.66
2019-01-03T10:49:30.015Z,103619.36
2019-01-03T10:52:00.460Z,103617.08
2019-01-03T10:54:33.694Z,103616.35
2019-01-03T10:57:04.562Z,103615.33
2019-01-03T10:59:34.938Z,103613.05
2019-01-03T11:02:05.345Z,103617.16
2019-01-03T11:04:35.754Z,103622.20
2019-01-03T11:07:06.126Z,103620.49
2019-01-03T11:09:36.541Z,103620.49
2019-01-03T11:12:07.094Z,103619.48
2019-01-03T11:14:37.457Z,103625.34
2019-01-03T11:17:08.222Z,103625.66
2019-01-03T11:19:38.620Z,103611.85
2019-01-03T11:22:08.995Z,103623.14
2019-01-03T11:24:39.391Z,103621.59
2019-01-03T11:27:09.805Z,103619.48
2019-01-03T11:29:40.177Z,103642.73
2019-01-03T11:32:10.601Z,103627.70
2019-01-03T11:34:41.019Z,103625.02
2019-01-03T11:37:11.779Z,103628.91
2019-01-03T11:39:42.557Z,103575.39
2019-01-03T11:42:12.985Z,103627.77
2019-01-03T11:44:43.416Z,103612.34
2019-01-03T11:47:13.850Z,103610.39
2019-01-03T11:49:44.307Z,103604.78
2019-01-03T11:52:14.774Z,103601.86
2019-01-03T11:54:45.223Z,103605.03
2019-01-03T11:57:15.577Z,103604.13
2019-01-03T11:59:46.000Z,103616.41
2019-01-03T12:02:16.916Z,103606.81
2019-01-03T12:04:47.300Z,103617.21
2019-01-03T12:07:17.655Z,103617.45
2019-01-03T12:09:48.074Z,103616.48
2019-01-03T12:12:18.476Z,103617.62
2019-01-03T12:14:48.965Z,103617.78
2019-01-03T12:17:19.363Z,103606.48
2019-01-03T12:19:49.712Z,103608.44
2019-01-03T12:22:20.428Z,103607.87
2019-01-03T12:24:50.823Z,103610.23
2019-01-03T12:27:21.188Z,103607.92
2019-01-03T12:29:51.591Z,103597.52
2019-01-03T12:32:21.984Z,103602.87
2019-01-03T12:34:52.396Z,103606.61
2019-01-03T12:37:22.743Z,103605.16
2019-01-03T12:39:53.162Z,103605.19
2019-01-03T12:42:23.872Z,103609.41
2019-01-03T12:44:54.684Z,103603.41
2019-01-03T12:47:25.139Z,103606.57
2019-01-03T12:49:55.550Z,103602.15
2019-01-03T12:52:25.939Z,103604.05
2019-01-03T12:54:56.581Z,103605.52
2019-01-03T12:57:27.032Z,103606.24
2019-01-03T12:59:57.793Z,103609.73
2019-01-03T13:02:28.551Z,103605.34
2019-01-03T13:04:58.963Z,103601.29
2019-01-03T13:07:29.397Z,103594.95
2019-01-03T13:09:59.749Z,103590.89
2019-01-03T13:12:31.335Z,103601.53
2019-01-03T13:15:01.779Z,103539.98
2019-01-03T13:17:32.210Z,103591.45
2019-01-03T13:20:03.563Z,103544.69
2019-01-03T13:22:34.018Z,103581.74
2019-01-03T13:25:04.899Z,103581.25
2019-01-03T13:27:36.267Z,103581.02
2019-01-03T13:30:09.879Z,103581.55
2019-01-03T13:32:40.267Z,103587.96
2019-01-03T13:35:11.020Z,103585.69
2019-01-03T13:37:41.430Z,103581.71
2019-01-03T13:40:13.454Z,103590.32
2019-01-03T13:42:44.096Z,103593.20
2019-01-03T13:45:14.759Z,103592.87
2019-01-03T13:47:45.157Z,103596.86
2019-01-03T13:50:15.557Z,103593.84
2019-01-03T13:52:46.136Z,103599.08
2019-01-03T13:55:16.535Z,103597.94
2019-01-03T13:57:46.989Z,103600.62
2019-01-03T14:00:17.351Z,103611.26
2019-01-03T14:02:47.812Z,103610.16
2019-01-03T14:05:18.245Z,103617.22
2019-01-03T14:07:48.686Z,103615.27
2019-01-03T14:10:19.059Z,103617.94
2019-01-03T14:12:50.020Z,103621.10
2019-01-03T14:15:20.424Z,103621.67
2019-01-03T14:17:50.833Z,103627.20
2019-01-03T14:20:24.806Z,103634.34
2019-01-03T14:22:55.176Z,103645.55
2019-01-03T14:25:27.181Z,103640.75
2019-01-03T14:27:57.711Z,103641.97
2019-01-03T14:30:28.092Z,103642.38
2019-01-03T14:32:58.655Z,103646.02
2019-01-03T14:35:29.071Z,103648.94
2019-01-03T14:37:59.469Z,103657.33
2019-01-03T14:40:29.862Z,103655.29
2019-01-03T14:43:00.239Z,103646.04
2019-01-03T14:45:30.833Z,103656.69
2019-01-03T14:48:01.196Z,103656.03
2019-01-03T14:50:31.599Z,103655.13
2019-01-03T14:53:01.972Z,103654.80
2019-01-03T14:55:32.890Z,103651.31
2019-01-03T14:58:04.787Z,103655.77
2019-01-03T15:00:35.211Z,103661.78
2019-01-03T15:03:05.910Z,103660.10
2019-01-03T15:05:36.306Z,103658.39
2019-01-03T15:08:06.707Z,103661.87
2019-01-03T15:10:37.690Z,103662.34
2019-01-03T15:13:08.075Z,103665.94
2019-01-03T15:15:38.666Z,103670.72
2019-01-03T15:18:09.013Z,103671.13
2019-01-03T15:20:39.456Z,103675.26
2019-01-03T15:23:09.840Z,103671.11
2019-01-03T15:25:40.224Z,103679.47
2019-01-03T15:28:10.657Z,103687.25
2019-01-03T15:30:41.068Z,103690.36
2019-01-03T15:33:11.476Z,103694.41
2019-01-03T15:35:41.823Z,103693.02
2019-01-03T15:38:12.209Z,103693.58
2019-01-03T15:40:42.717Z,103696.81
2019-01-03T15:43:13.076Z,103699.33
2019-01-03T15:45:43.790Z,103700.30
2019-01-03T15:48:14.213Z,103699.73
2019-01-03T15:50:44.587Z,103692.05
2019-01-03T15:53:15.002Z,103698.92
2019-01-03T15:55:47.270Z,103701.28
2019-01-03T15:58:19.278Z,103704.78
2019-01-03T16:00:49.747Z,103713.97
2019-01-03T16:03:20.176Z,103716.98
2019-01-03T16:05:50.559Z,103710.06
2019-01-03T16:08:20.968Z,103707.22
2019-01-03T16:10:51.995Z,103708.76
2019-01-03T16:13:24.439Z,103700.87
2019-01-03T16:15:55.124Z,103709.22
2019-01-03T16:18:25.526Z,103712.41
2019-01-03T16:20:55.946Z,103707.62
2019-01-03T16:23:26.311Z,103707.67
2019-01-03T16:25:56.678Z,103701.34
2019-01-03T16:28:27.081Z,103701.36
2019-01-03T16:30:57.672Z,103700.23
2019-01-03T16:33:28.045Z,103700.50
2019-01-03T16:35:58.431Z,103695.55
2019-01-03T16:38:29.025Z,103691.95
2019-01-03T16:40:59.441Z,103678.91
2019-01-03T16:43:29.822Z,103671.05
2019-01-03T16:46:00.281Z,103624.60
2019-01-03T16:48:30.674Z,103682.70
2019-01-03T16:51:01.074Z,103679.97
2019-01-03T16:53:31.437Z,103673.95
2019-01-03T16:56:01.859Z,103689.70
2019-01-03T16:58:32.468Z,103691.23
2019-01-03T17:01:02.945Z,103684.34
2019-01-03T17:03:33.388Z,103691.98
2019-01-03T17:06:09.434Z,103689.80
2019-01-03T17:08:39.803Z,103703.42
2019-01-03T17:11:10.194Z,103713.25
2019-01-03T17:13:40.666Z,103712.11
2019-01-03T17:16:11.114Z,103703.64
2019-01-03T17:18:41.560Z,103706.11
2019-01-03T17:21:11.973Z,103702.05
2019-01-03T17:23:42.497Z,103698.80
2019-01-03T17:26:12.879Z,103700.52
2019-01-03T17:28:43.292Z,103711.28
2019-01-03T17:31:13.740Z,103714.85
2019-01-03T17:33:44.126Z,103702.84
2019-01-03T17:36:15.217Z,103704.06
2019-01-03T17:38:45.644Z,103701.55
2019-01-03T17:41:16.031Z,103700.58
2019-01-03T17:43:46.424Z,103702.77
2019-01-03T17:46:17.304Z,103699.05
2019-01-03T17:48:47.978Z,103702.22
2019-01-03T17:51:18.568Z,103706.74
2019-01-03T17:53:48.996Z,103708.13
2019-01-03T17:56:19.772Z,103710.56
2019-01-03T17:58:51.021Z,103711.45
2019-01-03T18:01:22.091Z,103710.81
2019-01-03T18:03:52.973Z,103716.90
2019-01-03T18:06:23.786Z,103719.73
2019-01-03T18:08:54.466Z,103728.28
2019-01-03T18:11:25.161Z,103733.39
2019-01-03T18:13:56.472Z,103726.23
2019-01-03T18:16:27.188Z,103735.23
2019-01-03T18:18:58.013Z,103737.52
2019-01-03T18:21:29.169Z,103741.80
2019-01-03T18:23:59.848Z,103743.83
2019-01-03T18:26:30.669Z,103738.30
2019-01-03T18:29:01.797Z,103739.67
2019-01-03T18:31:32.844Z,103740.66
2019-01-03T18:34:03.594Z,103742.44
2019-01-03T18:36:34.338Z,103746.98
2019-01-03T18:39:06.760Z,103741.47
2019-01-03T18:41:38.880Z,103741.48
2019-01-03T18:44:10.102Z,103745.88
2019-01-03T18:46:40.793Z,103741.39
2019-01-03T18:49:11.784Z,103742.30
2019-01-03T18:51:42.945Z,103742.44
2019-01-03T18:54:15.131Z,103747.07
2019-01-03T18:56:45.876Z,103755.59
2019-01-03T18:59:16.662Z,103756.03
2019-01-03T19:01:47.350Z,103759.02
2019-01-03T19:04:18.059Z,103760.12
2019-01-03T19:06:49.298Z,103760.62
2019-01-03T19:09:19.924Z,103755.13
2019-01-03T19:11:50.494Z,103753.34
2019-01-03T19:14:21.422Z,103754.70
2019-01-03T19:16:53.427Z,103743.83
2019-01-03T19:19:23.888Z,103744.39
2019-01-03T19:21:54.733Z,103745.37
2019-01-03T19:24:25.648Z,103748.79
2019-01-03T19:26:56.369Z,103751.07
2019-01-03T19:29:27.308Z,103744.74
2019-01-03T19:31:58.583Z,103744.75
2019-01-03T19:34:29.308Z,103735.18
2019-01-03T19:36:59.700Z,103737.91
2019-01-03T19:39:30.744Z,103741.00
2019-01-03T19:42:01.705Z,103746.13
2019-01-03T19:44:32.191Z,103745.81
2019-01-03T19:47:03.285Z,103741.91
2019-01-03T19:49:33.943Z,103740.28
2019-01-03T19:52:07.016Z,103743.13
2019-01-03T19:54:37.472Z,103737.45
2019-01-03T19:57:07.913Z,103737.77
2019-01-03T19:59:38.284Z,103732.09
2019-01-03T20:02:09.032Z,103743.37
2019-01-03T20:04:39.687Z,103735.72
2019-01-03T20:07:10.116Z,103733.64
2019-01-03T20:09:40.541Z,103731.61
2019-01-03T20:12:11.065Z,103723.16
2019-01-03T20:14:42.134Z,103727.21
2019-01-03T20:17:13.344Z,103727.13
2019-01-03T20:19:43.768Z,103731.19
2019-01-03T20:22:14.137Z,103727.20
2019-01-03T20:24:44.592Z,103725.58
2019-01-03T20:27:14.981Z,103722.83
2019-01-03T20:29:45.376Z,103721.19
2019-01-03T20:32:15.847Z,103714.78
2019-01-03T20:34:46.412Z,103724.61
2019-01-03T20:37:16.830Z,103727.63
2019-01-03T20:39:47.361Z,103728.92
2019-01-03T20:42:17.736Z,103725.60
2019-01-03T20:44:48.135Z,103718.45
2019-01-03T20:47:18.600Z,103720.89
2019-01-03T20:49:49.019Z,103722.84
2019-01-03T20:52:19.554Z,103725.28
2019-01-03T20:54:50.022Z,103715.86
2019-01-03T20:57:20.407Z,103717.97
2019-01-03T20:59:50.761Z,103720.09
2019-01-03T21:02:21.515Z,103723.33
2019-01-03T21:04:51.935Z,103711.31
2019-01-03T21:07:22.368Z,103704.50
2019-01-03T21:09:52.849Z,103693.87
2019-01-03T21:12:23.235Z,103694.92
2019-01-03T21:14:53.916Z,103693.95
2019-01-03T21:17:24.345Z,103692.66
2019-01-03T21:19:54.945Z,103694.41
2019-01-03T21:22:25.346Z,103684.18
2019-01-03T21:24:55.724Z,103685.16
2019-01-03T21:27:26.106Z,103679.16
2019-01-03T21:29:56.557Z,103678.58
2019-01-03T21:32:27.285Z,103675.02
2019-01-03T21:34:57.668Z,103673.80
2019-01-03T21:37:28.301Z,103667.79
2019-01-03T21:39:58.675Z,103663.80
2019-01-03T21:42:29.083Z,103666.08
2019-01-03T21:44:59.477Z,103673.30
2019-01-03T21:47:29.897Z,103669.73
2019-01-03T21:50:00.294Z,103672.33
2019-01-03T21:52:30.645Z,103673.22
2019-01-03T21:55:01.095Z,103672.20
2019-01-03T21:57:31.487Z,103674.39
2019-01-03T22:00:02.156Z,103663.66
2019-01-03T22:02:32.605Z,103658.88
2019-01-03T22:05:02.988Z,103659.84
2019-01-03T22:07:33.375Z,103651.56
2019-01-03T22:10:05.341Z,103650.27
2019-01-03T22:12:35.747Z,103655.12
2019-01-03T22:15:08.745Z,103659.34
2019-01-03T22:17:39.507Z,103656.42
2019-01-03T22:20:10.432Z,103655.53
2019-01-03T22:22:40.802Z,103655.20
2019-01-03T22:25:11.188Z,103652.53
2019-01-03T22:27:41.567Z,103644.49
2019-01-03T22:30:12.103Z,103638.56
2019-01-03T22:32:42.493Z,103636.22
2019-01-03T22:35:13.209Z,103632.56
2019-01-03T22:37:43.574Z,103630.78
2019-01-03T22:40:13.982Z,103626.06
2019-01-03T22:42:44.358Z,103628.34
2019-01-03T22:45:14.768Z,103624.77
2019-01-03T22:47:45.162Z,103616.32
2019-01-03T22:50:15.576Z,103615.14
2019-01-03T22:52:45.951Z,103608.88
2019-01-03T22:55:16.341Z,103614.56
2019-01-03T22:57:46.772Z,103608.80
2019-01-03T23:00:30.873Z,103600.75
2019-01-03T23:03:01.631Z,103602.05
2019-01-03T23:05:32.012Z,103596.88
2019-01-03T23:08:02.425Z,103597.45
2019-01-03T23:10:32.795Z,103596.31
2019-01-03T23:13:03.262Z,103592.09
2019-01-03T23:15:33.972Z,103588.84
2019-01-03T23:18:04.708Z,103585.67
2019-01-03T23:20:35.148Z,103591.20
2019-01-03T23:23:05.901Z,103591.68
2019-01-03T23:25:36.277Z,103582.35
2019-01-03T23:28:06.698Z,103581.38
2019-01-03T23:30:37.076Z,103576.19
2019-01-03T23:33:07.731Z,103577.16
2019-01-03T23:35:38.866Z,103587.13
2019-01-03T23:38:09.233Z,103574.31
2019-01-03T23:40:39.638Z,103566.20
2019-01-03T23:43:10.013Z,103566.28
2019-01-03T23:45:40.486Z,103562.14
2019-01-03T23:48:10.872Z,103557.27
2019-01-03T23:50:41.266Z,103558.23
2019-01-03T23:53:11.649Z,103549.88
2019-01-03T23:55:42.413Z,103543.14
2019-01-03T23:58:12.779Z,103538.63
